Time;durP1;ratioP1;P1;durP2;ratioP2;P2;SDS_P1;SDS_P2;PMS_P1;PMS_P2;Temp;Humidity;BMP_temperature;BMP_pressure;BME280_temperature;BME280_humidity;BME280_pressure;Samples;Min_cycle;Max_cycle;Signal;HPM_P1;HPM_P2
2021/05/31 00:01:24;;;;;;;3.80;2.77;;;;;;;13.54;49.53;96116.75;4956898;29;20204;-84
2021/05/31 00:03:50;;;;;;;3.53;3.23;;;;;;;13.48;48.77;96115.69;4955998;29;20224;-84
2021/05/31 00:06:16;;;;;;;2.77;2.53;;;;;;;13.61;48.77;96109.06;4956118;29;20200;-84
2021/05/31 00:08:42;;;;;;;5.13;2.83;;;;;;;13.64;49.04;96113.88;4957098;29;20275;-84
2021/05/31 00:11:08;;;;;;;2.93;2.67;;;;;;;13.45;49.24;96117.84;4956119;29;20272;-83
2021/05/31 00:13:34;;;;;;;2.93;2.63;;;;;;;13.52;49.02;96113.53;4956929;29;20211;-84
2021/05/31 00:16:00;;;;;;;4.57;3.03;;;;;;;13.57;49.15;96110.41;4956352;29;20208;-84
2021/05/31 00:18:28;;;;;;;3.40;2.80;;;;;;;13.44;49.11;96101.53;4956843;29;20652;-83
2021/05/31 00:20:54;;;;;;;2.70;2.47;;;;;;;13.44;49.24;96101.53;4956158;29;20200;-83
2021/05/31 00:23:21;;;;;;;3.47;2.80;;;;;;;13.40;49.27;96107.22;4955980;29;20377;-84
2021/05/31 00:25:47;;;;;;;2.97;2.67;;;;;;;13.44;49.37;96105.91;4956132;29;20196;-84
2021/05/31 00:28:13;;;;;;;3.40;2.80;;;;;;;13.37;50.01;96108.38;4956224;29;20311;-84
2021/05/31 00:30:40;;;;;;;2.73;2.53;;;;;;;13.30;50.83;96114.44;4955831;29;20213;-86
2021/05/31 00:33:07;;;;;;;3.03;2.73;;;;;;;13.39;49.89;96108.22;4954687;28;20287;-84
2021/05/31 00:35:34;;;;;;;4.30;2.80;;;;;;;13.42;49.95;96107.84;4955311;29;20648;-84
2021/05/31 00:38:00;;;;;;;2.70;2.50;;;;;;;13.47;50.03;96110.69;4955488;29;20212;-84
2021/05/31 00:40:27;;;;;;;3.53;2.80;;;;;;;13.48;49.72;96101.94;4955067;29;20247;-83
2021/05/31 00:42:53;;;;;;;3.37;3.07;;;;;;;13.21;50.33;96107.78;4955494;29;20686;-85
2021/05/31 00:45:19;;;;;;;2.63;2.40;;;;;;;12.91;51.54;96101.78;4955572;29;20228;-86
2021/05/31 00:47:45;;;;;;;3.30;2.70;;;;;;;12.90;51.47;96102.75;4956737;29;20591;-87
2021/05/31 00:50:13;;;;;;;2.90;2.70;;;;;;;12.91;51.50;96096.59;4956042;29;20197;-83
2021/05/31 00:52:40;;;;;;;4.63;2.97;;;;;;;12.84;51.93;96093.16;4955313;29;20201;-83
2021/05/31 00:55:07;;;;;;;3.17;2.87;;;;;;;12.82;51.93;96093.31;4954903;29;20217;-84
2021/05/31 00:57:33;;;;;;;3.37;2.97;;;;;;;12.87;52.26;96092.81;4955332;29;20209;-84
2021/05/31 01:00:00;;;;;;;3.30;3.00;;;;;;;12.97;51.31;96088.94;4955033;29;20193;-85
2021/05/31 01:02:27;;;;;;;3.23;2.80;;;;;;;12.94;51.73;96091.09;4954404;29;20248;-86
2021/05/31 01:04:53;;;;;;;3.33;3.03;;;;;;;12.94;52.11;96091.88;4955061;29;20221;-85
2021/05/31 01:07:27;;;;;;;3.63;3.33;;;;;;;12.94;52.17;96088.50;4955809;29;20201;-85
2021/05/31 01:10:00;;;;;;;3.43;3.17;;;;;;;12.95;51.58;96090.09;4955345;29;20255;-84
2021/05/31 01:12:30;;;;;;;3.40;3.10;;;;;;;12.95;52.04;96087.53;4954710;29;20669;-86
2021/05/31 01:15:02;;;;;;;3.20;3.00;;;;;;;12.65;52.75;96089.31;4954695;29;20225;-85
2021/05/31 01:17:38;;;;;;;3.47;3.17;;;;;;;12.39;53.90;96082.75;4954977;29;20209;-84
2021/05/31 01:20:37;;;;;;;3.90;3.50;;;;;;;12.41;54.13;96078.22;4949616;29;20263;-86
2021/05/31 01:23:08;;;;;;;3.80;3.50;;;;;;;12.48;53.29;96086.09;4955130;29;20195;-85
2021/05/31 01:25:48;;;;;;;3.70;3.40;;;;;;;12.51;54.05;96085.69;4955550;29;20224;-86
2021/05/31 01:28:44;;;;;;;3.23;2.93;;;;;;;12.56;53.71;96088.56;4955783;29;20232;-86
2021/05/31 01:31:11;;;;;;;3.80;3.50;;;;;;;12.64;53.27;96088.50;4927484;29;20205;-86
2021/05/31 01:33:37;;;;;;;3.47;3.17;;;;;;;12.58;53.60;96078.88;4947361;29;20812;-85
2021/05/31 01:36:06;;;;;;;3.60;3.30;;;;;;;12.61;53.48;96075.13;4955919;29;20200;-86
2021/05/31 01:38:34;;;;;;;3.93;3.43;;;;;;;12.48;54.37;96082.69;4955369;29;20201;-85
2021/05/31 01:41:01;;;;;;;3.57;3.27;;;;;;;12.44;54.56;96079.66;4955225;29;20208;-85
2021/05/31 01:43:27;;;;;;;3.93;3.47;;;;;;;12.52;54.37;96069.22;4955445;29;20767;-85
2021/05/31 01:45:55;;;;;;;3.77;3.47;;;;;;;12.56;53.91;96075.66;4954620;28;20207;-84
2021/05/31 01:48:21;;;;;;;3.97;3.50;;;;;;;12.55;54.02;96070.66;4955613;29;20740;-83
2021/05/31 01:50:48;;;;;;;3.63;3.33;;;;;;;12.44;54.54;96064.16;4955582;29;20239;-83
2021/05/31 01:53:15;;;;;;;4.50;3.57;;;;;;;12.47;54.30;96065.59;4955474;29;20244;-86
2021/05/31 01:55:43;;;;;;;3.40;3.10;;;;;;;12.44;55.11;96067.53;4955622;29;20244;-86
2021/05/31 01:58:09;;;;;;;4.17;3.47;;;;;;;12.39;55.42;96056.13;4954867;29;20210;-83
2021/05/31 02:00:35;;;;;;;3.80;3.50;;;;;;;12.47;55.35;96058.66;4954738;29;20566;-85
2021/05/31 02:03:04;;;;;;;3.63;3.33;;;;;;;12.53;54.75;96060.50;4954392;29;20204;-84
2021/05/31 02:05:30;;;;;;;5.30;3.77;;;;;;;12.52;55.75;96069.22;4955301;29;20216;-86
2021/05/31 02:07:56;;;;;;;4.07;3.77;;;;;;;12.34;56.06;96072.13;4955007;29;20897;-85
2021/05/31 02:10:22;;;;;;;3.50;3.20;;;;;;;12.45;55.63;96063.19;4955742;28;20209;-86
2021/05/31 02:12:52;;;;;;;4.07;3.67;;;;;;;12.31;56.66;96059.59;4954860;29;20231;-86
2021/05/31 02:15:20;;;;;;;4.03;3.63;;;;;;;12.21;56.69;96055.66;4944668;29;20239;-86
2021/05/31 02:17:54;;;;;;;5.07;3.50;;;;;;;12.14;56.84;96054.72;4955132;29;20199;-86
2021/05/31 02:20:25;;;;;;;4.97;3.87;;;;;;;12.30;56.26;96057.19;4954931;29;20389;-84
2021/05/31 02:22:55;;;;;;;4.13;3.83;;;;;;;12.40;55.72;96055.97;4954235;29;20204;-86
2021/05/31 02:25:22;;;;;;;4.57;3.43;;;;;;;12.48;55.28;96055.09;4954817;29;20232;-84
2021/05/31 02:27:50;;;;;;;4.10;3.47;;;;;;;12.59;54.44;96056.41;4954473;29;20871;-86
2021/05/31 02:30:17;;;;;;;5.27;3.70;;;;;;;12.64;54.67;96056.69;4954752;29;20205;-86
2021/05/31 02:32:49;;;;;;;5.17;3.90;;;;;;;12.52;54.89;96045.97;4953735;29;20233;-84
2021/05/31 02:35:16;;;;;;;3.60;3.30;;;;;;;12.43;54.89;96042.69;4954532;29;20255;-86
2021/05/31 02:37:44;;;;;;;4.33;3.80;;;;;;;12.32;54.97;96050.06;4954671;29;20208;-86
2021/05/31 02:40:10;;;;;;;4.07;3.70;;;;;;;12.35;54.97;96050.50;4955218;29;20201;-84
2021/05/31 02:42:38;;;;;;;4.57;4.17;;;;;;;12.25;55.76;96051.75;4954762;29;20626;-86
2021/05/31 02:45:05;;;;;;;3.90;3.60;;;;;;;12.27;55.25;96039.47;4954587;29;20220;-85
2021/05/31 02:47:31;;;;;;;4.63;4.23;;;;;;;12.25;55.48;96041.41;4954374;29;20298;-86
2021/05/31 02:49:57;;;;;;;4.63;4.20;;;;;;;12.26;55.57;96038.66;4954181;29;20201;-85
2021/05/31 02:52:23;;;;;;;4.83;3.87;;;;;;;12.24;55.83;96034.66;4953699;29;20208;-85
2021/05/31 02:54:50;;;;;;;4.33;3.93;;;;;;;12.18;55.97;96037.91;4953852;29;20223;-85
2021/05/31 02:57:16;;;;;;;4.60;4.20;;;;;;;12.03;56.75;96036.13;4955802;28;20209;-86
2021/05/31 02:59:42;;;;;;;5.73;4.20;;;;;;;11.85;58.25;96033.03;4958011;29;20209;-86
2021/05/31 03:02:08;;;;;;;5.17;4.23;;;;;;;11.91;56.79;96034.94;4957447;29;20201;-86
2021/05/31 03:04:34;;;;;;;5.03;4.23;;;;;;;12.07;56.44;96034.00;4957997;29;20312;-84
2021/05/31 03:07:00;;;;;;;4.50;4.10;;;;;;;12.16;56.24;96032.13;4958120;29;20271;-84
2021/05/31 03:09:26;;;;;;;4.93;4.23;;;;;;;12.23;55.81;96028.69;4959119;29;20224;-86
2021/05/31 03:11:53;;;;;;;4.57;3.80;;;;;;;12.26;55.64;96030.91;4957790;29;20205;-86
2021/05/31 03:14:19;;;;;;;4.73;4.20;;;;;;;12.21;55.72;96022.09;4957886;29;20645;-86
2021/05/31 03:16:45;;;;;;;4.60;4.20;;;;;;;12.16;56.17;96032.13;4958167;29;20208;-86
2021/05/31 03:19:11;;;;;;;4.70;4.30;;;;;;;12.20;55.52;96034.19;4958311;29;20228;-86
2021/05/31 03:21:37;;;;;;;4.30;3.90;;;;;;;12.21;55.58;96032.41;4958718;29;20657;-86
2021/05/31 03:24:04;;;;;;;4.70;4.20;;;;;;;12.30;55.12;96036.53;4958578;29;20696;-85
2021/05/31 03:26:30;;;;;;;6.40;4.17;;;;;;;12.34;54.91;96033.41;4958875;29;20204;-84
2021/05/31 03:28:57;;;;;;;4.00;3.60;;;;;;;12.36;54.47;96026.28;4957788;29;20227;-83
2021/05/31 03:31:23;;;;;;;4.23;3.83;;;;;;;12.37;54.00;96027.91;4958291;29;20201;-84
2021/05/31 03:33:49;;;;;;;5.03;3.70;;;;;;;12.21;54.73;96029.84;4957926;29;20260;-85
2021/05/31 03:36:15;;;;;;;4.30;3.83;;;;;;;11.89;55.72;96028.34;4971834;29;20205;-84
2021/05/31 03:38:41;;;;;;;4.63;4.23;;;;;;;11.72;56.26;96022.47;4975114;28;20268;-83
2021/05/31 03:41:07;;;;;;;4.87;4.37;;;;;;;11.67;55.92;96025.56;4966298;29;20251;-85
2021/05/31 03:43:33;;;;;;;4.47;4.03;;;;;;;11.72;56.63;96030.22;4956335;29;20238;-84
2021/05/31 03:46:00;;;;;;;4.37;3.97;;;;;;;11.82;56.01;96030.00;4956966;29;20211;-83
2021/05/31 03:48:26;;;;;;;4.13;3.47;;;;;;;11.96;55.68;96029.22;4955857;29;20917;-83
2021/05/31 03:51:07;;;;;;;4.30;3.90;;;;;;;12.02;54.99;96031.13;4955491;29;20201;-83
2021/05/31 03:53:34;;;;;;;4.20;3.80;;;;;;;12.03;55.35;96025.78;4948922;29;20795;-85
2021/05/31 03:56:00;;;;;;;5.90;4.27;;;;;;;12.05;54.70;96023.03;4956830;29;20197;-84
2021/05/31 03:58:26;;;;;;;4.83;3.80;;;;;;;12.10;54.46;96026.72;4956492;29;20205;-83
2021/05/31 04:00:52;;;;;;;4.27;3.70;;;;;;;12.12;54.53;96029.13;4956453;29;20222;-84
2021/05/31 04:03:20;;;;;;;4.43;4.07;;;;;;;12.11;54.65;96022.34;4956467;29;20324;-83
2021/05/31 04:05:56;;;;;;;5.93;3.90;;;;;;;11.97;55.32;96018.75;4956780;29;20216;-84
2021/05/31 04:13:52;;;;;;;6.03;4.40;;;;;;;12.09;54.66;96019.13;4955982;28;20727;-85
2021/05/31 04:16:18;;;;;;;6.33;4.00;;;;;;;12.24;54.90;96017.38;4956554;29;20200;-85
2021/05/31 04:18:45;;;;;;;4.33;3.93;;;;;;;12.31;54.79;96014.91;4955202;28;20220;-85
2021/05/31 04:21:11;;;;;;;4.30;3.90;;;;;;;12.32;54.63;96013.91;4956194;28;20271;-83
2021/05/31 04:23:37;;;;;;;4.27;3.87;;;;;;;12.41;53.88;96023.19;4974942;28;20205;-84
2021/05/31 04:26:03;;;;;;;5.10;4.47;;;;;;;12.52;54.17;96027.91;4937069;29;20209;-84
2021/05/31 04:28:29;;;;;;;5.30;3.60;;;;;;;12.79;56.73;96022.13;4944667;29;20232;-84
2021/05/31 04:30:55;;;;;;;4.43;4.03;;;;;;;12.95;54.05;96020.31;4956833;29;20228;-83
2021/05/31 04:33:21;;;;;;;6.60;4.10;;;;;;;13.14;55.33;96023.16;4956806;29;20434;-84
2021/05/31 04:35:48;;;;;;;4.97;4.40;;;;;;;13.12;54.50;96017.34;4957230;29;20256;-83
2021/05/31 04:38:14;;;;;;;5.30;3.90;;;;;;;13.34;54.72;96020.81;4957635;29;20201;-84
2021/05/31 04:40:40;;;;;;;5.00;4.50;;;;;;;13.55;53.35;96020.03;4958074;29;20203;-83
2021/05/31 04:43:06;;;;;;;27.70;16.80;;;;;;;13.80;53.59;96023.06;4958153;29;20203;-84
2021/05/31 04:45:32;;;;;;;33.03;27.33;;;;;;;14.13;53.61;96012.97;4961021;28;20233;-87
2021/05/31 04:47:58;;;;;;;7.57;6.77;;;;;;;14.22;51.29;96017.03;4957082;29;20644;-86
2021/05/31 04:50:24;;;;;;;5.03;4.47;;;;;;;14.21;50.50;96017.22;4956956;29;20205;-85
2021/05/31 04:52:51;;;;;;;5.37;4.50;;;;;;;14.02;52.46;96016.91;4959116;29;20216;-84
2021/05/31 04:55:18;;;;;;;5.10;4.60;;;;;;;13.91;51.49;96012.19;4957545;29;20225;-84
2021/05/31 04:57:46;;;;;;;4.90;4.50;;;;;;;13.70;51.73;96017.38;4956831;29;20205;-85
2021/05/31 05:00:13;;;;;;;5.67;5.03;;;;;;;13.55;52.79;96019.22;4956998;29;20232;-84
2021/05/31 05:02:39;;;;;;;4.90;4.50;;;;;;;13.47;52.78;96020.13;4958554;29;20209;-85
2021/05/31 05:05:06;;;;;;;4.90;4.40;;;;;;;13.34;52.97;96014.84;4958830;29;20229;-86
2021/05/31 05:07:32;;;;;;;4.70;4.30;;;;;;;13.25;53.14;96023.72;4958487;29;20223;-85
2021/05/31 05:10:00;;;;;;;5.67;4.80;;;;;;;13.24;53.84;96016.94;4957484;29;20205;-86
2021/05/31 05:12:26;;;;;;;5.13;4.30;;;;;;;13.30;52.67;96023.94;4958255;29;20215;-85
2021/05/31 05:14:52;;;;;;;4.87;4.40;;;;;;;13.32;53.11;96020.19;4957914;29;20791;-85
2021/05/31 05:17:18;;;;;;;5.50;5.00;;;;;;;13.20;53.41;96019.06;4957728;29;20204;-86
2021/05/31 05:19:44;;;;;;;5.80;5.23;;;;;;;13.26;54.37;96017.56;4959221;28;20193;-86
2021/05/31 05:22:09;;;;;;;5.23;4.73;;;;;;;13.30;54.32;96029.09;4958560;29;20215;-86
2021/05/31 05:24:35;;;;;;;4.93;4.50;;;;;;;13.47;54.42;96028.69;4956470;29;20229;-86
2021/05/31 05:27:05;;;;;;;6.20;4.90;;;;;;;13.60;53.91;96025.47;4957558;29;20216;-84
2021/05/31 05:29:31;;;;;;;5.33;4.83;;;;;;;13.64;54.32;96024.13;4957132;29;20225;-87
2021/05/31 05:31:58;;;;;;;5.23;4.73;;;;;;;13.58;53.48;96021.47;4956103;29;20761;-86
2021/05/31 05:34:25;;;;;;;5.27;4.77;;;;;;;13.61;54.06;96013.34;4958698;29;20229;-85
2021/05/31 05:36:55;;;;;;;5.40;4.70;;;;;;;13.64;55.03;96028.50;4957252;29;20236;-84
2021/05/31 05:39:47;;;;;;;5.07;4.67;;;;;;;13.64;54.38;96028.50;4958402;29;20197;-86
2021/05/31 05:42:25;;;;;;;5.90;5.27;;;;;;;13.66;54.65;96031.69;4954531;29;20277;-85
2021/05/31 05:47:44;;;;;;;5.50;5.00;;;;;;;13.62;53.73;96030.47;4956205;29;20726;-84
2021/05/31 05:50:13;;;;;;;6.63;4.83;;;;;;;13.77;54.00;96026.81;4955333;29;20209;-85
2021/05/31 05:52:39;;;;;;;5.17;4.63;;;;;;;13.79;53.58;96022.28;4955301;29;20219;-85
2021/05/31 05:55:07;;;;;;;6.10;5.07;;;;;;;13.93;53.01;96035.31;4955223;29;20644;-85
2021/05/31 05:57:35;;;;;;;5.17;4.77;;;;;;;13.90;52.80;96036.47;4959979;29;20213;-85
2021/05/31 06:00:08;;;;;;;6.97;4.87;;;;;;;13.85;53.21;96028.50;4955314;29;20265;-85
2021/05/31 06:02:34;;;;;;;5.47;4.97;;;;;;;13.78;52.35;96030.22;4954703;29;20746;-87
2021/05/31 06:05:00;;;;;;;5.60;5.10;;;;;;;13.65;52.39;96030.91;4956105;29;20256;-86
2021/05/31 06:07:27;;;;;;;5.80;5.07;;;;;;;13.55;53.71;96032.97;4956797;29;20236;-86
2021/05/31 06:09:53;;;;;;;5.90;4.90;;;;;;;13.64;53.62;96039.66;4956231;29;20229;-86
2021/05/31 06:12:19;;;;;;;5.03;4.60;;;;;;;13.88;53.21;96033.28;4953039;29;20205;-85
2021/05/31 06:14:46;;;;;;;6.57;4.70;;;;;;;13.94;52.90;96019.59;4953505;29;20229;-84
2021/05/31 06:17:12;;;;;;;7.83;5.10;;;;;;;13.99;52.48;96026.81;4955142;29;20197;-85
2021/05/31 06:19:38;;;;;;;5.57;4.87;;;;;;;13.93;53.76;96032.72;4956498;29;20307;-85
2021/05/31 06:22:05;;;;;;;5.53;5.03;;;;;;;13.93;54.04;96025.75;4957217;29;20200;-86
2021/05/31 06:24:31;;;;;;;5.13;4.73;;;;;;;14.03;53.12;96025.47;4957610;29;20228;-86
2021/05/31 06:26:57;;;;;;;5.13;4.60;;;;;;;13.97;52.79;96026.19;4955741;29;20201;-85
2021/05/31 06:29:23;;;;;;;4.67;4.27;;;;;;;14.01;52.26;96035.19;4957913;29;20683;-86
2021/05/31 06:31:51;;;;;;;5.40;4.70;;;;;;;14.00;51.69;96031.81;4961201;28;20465;-86
2021/05/31 06:34:19;;;;;;;5.23;4.70;;;;;;;14.04;52.33;96022.69;4962169;29;20225;-86
2021/05/31 06:36:48;;;;;;;4.73;4.33;;;;;;;13.97;52.22;96024.41;4962886;28;20220;-85
2021/05/31 06:39:14;;;;;;;5.07;4.57;;;;;;;14.03;53.62;96036.63;4963351;29;20673;-83
2021/05/31 06:41:43;;;;;;;5.23;4.47;;;;;;;14.10;52.51;96027.09;4962231;29;20256;-83
2021/05/31 06:44:09;;;;;;;4.87;4.47;;;;;;;14.10;52.86;96027.09;4960245;29;20247;-83
2021/05/31 06:46:35;;;;;;;5.50;5.00;;;;;;;14.01;51.69;96017.06;4951335;29;20208;-84
2021/05/31 06:49:02;;;;;;;6.03;4.90;;;;;;;14.05;52.23;96020.88;4960959;29;20220;-85
2021/05/31 06:51:28;;;;;;;5.43;4.50;;;;;;;14.13;52.65;96012.97;4959506;29;20833;-84
2021/05/31 06:53:54;;;;;;;4.80;4.33;;;;;;;14.16;52.03;96018.59;4960026;29;20232;-86
2021/05/31 06:56:23;;;;;;;4.87;4.37;;;;;;;14.31;52.50;96020.28;4959226;29;20296;-85
2021/05/31 06:58:49;;;;;;;5.73;4.43;;;;;;;14.47;51.76;96013.03;4959369;28;20205;-84
2021/05/31 07:01:15;;;;;;;6.63;4.57;;;;;;;14.60;50.84;96011.53;4959707;29;20205;-85
2021/05/31 07:03:41;;;;;;;5.97;4.50;;;;;;;14.49;49.97;96011.06;4957728;29;20236;-86
2021/05/31 07:06:08;;;;;;;5.37;3.97;;;;;;;14.47;49.90;96017.44;4956769;29;20201;-87
2021/05/31 07:08:35;;;;;;;4.90;4.40;;;;;;;14.58;50.81;96016.91;4956827;29;20252;-86
2021/05/31 07:11:05;;;;;;;4.70;4.30;;;;;;;14.73;50.63;96024.56;4959216;29;20215;-85
2021/05/31 07:13:31;;;;;;;5.37;4.90;;;;;;;14.71;50.53;96014.38;4957111;29;20201;-85
2021/05/31 07:15:58;;;;;;;6.17;4.33;;;;;;;14.66;49.89;96021.94;4959529;29;20280;-86
2021/05/31 07:18:25;;;;;;;4.47;3.97;;;;;;;14.79;51.37;96023.81;4961066;29;20220;-87
2021/05/31 07:20:52;;;;;;;4.83;4.43;;;;;;;14.89;50.97;96015.66;4957938;29;20207;-85
2021/05/31 07:23:20;;;;;;;6.67;4.27;;;;;;;14.93;50.70;96014.28;4958352;29;20212;-86
2021/05/31 07:25:47;;;;;;;4.87;4.47;;;;;;;15.00;51.27;96021.13;4959112;29;20224;-88
2021/05/31 07:28:13;;;;;;;4.50;4.10;;;;;;;15.12;50.00;96019.56;4959199;29;20236;-85
2021/05/31 07:30:39;;;;;;;5.07;4.57;;;;;;;15.18;49.03;96024.00;4957068;29;20209;-85
2021/05/31 07:33:09;;;;;;;4.73;4.33;;;;;;;15.19;49.93;96017.00;4956710;29;20232;-85
2021/05/31 07:35:36;;;;;;;4.40;4.00;;;;;;;15.26;49.95;96014.41;4957300;29;20299;-85
2021/05/31 07:38:02;;;;;;;4.27;3.87;;;;;;;15.41;48.62;96023.63;4957293;28;20209;-86
2021/05/31 07:40:29;;;;;;;4.13;3.63;;;;;;;15.45;48.00;96019.66;4959046;28;20201;-85
2021/05/31 07:42:55;;;;;;;3.87;3.57;;;;;;;15.50;46.95;96027.66;4956034;28;20205;-86
2021/05/31 07:45:21;;;;;;;3.70;3.40;;;;;;;15.34;46.10;96025.44;4956773;28;20287;-86
2021/05/31 07:47:48;;;;;;;6.40;3.40;;;;;;;15.35;45.60;96019.25;4958418;29;20211;-86
2021/05/31 07:50:16;;;;;;;3.97;3.40;;;;;;;15.44;47.44;96018.06;4957415;28;20699;-87
2021/05/31 07:52:42;;;;;;;3.77;3.47;;;;;;;15.53;46.30;96014.31;4958030;28;20209;-86
2021/05/31 07:55:11;;;;;;;3.80;3.50;;;;;;;15.57;47.23;96019.94;4958115;29;20248;-85
2021/05/31 07:57:39;;;;;;;4.87;3.90;;;;;;;15.78;46.85;96014.56;4961044;28;20272;-86
2021/05/31 08:00:09;;;;;;;5.57;3.70;;;;;;;15.96;46.67;96016.59;4960409;29;20212;-84
2021/05/31 08:02:36;;;;;;;4.22;3.42;;;;;;;16.20;46.49;96017.78;4961112;28;20204;-87
2021/05/31 08:05:02;;;;;;;3.35;2.75;;;;;;;16.24;42.93;96014.59;4957805;29;20239;-86
2021/05/31 08:07:28;;;;;;;3.67;2.50;;;;;;;16.35;43.23;96020.19;4959830;29;20700;-88
2021/05/31 08:09:54;;;;;;;3.25;2.95;;;;;;;16.42;42.52;96010.56;4958568;29;20228;-86
2021/05/31 08:12:22;;;;;;;3.65;3.35;;;;;;;16.39;43.46;96005.75;4957919;29;20204;-87
2021/05/31 08:14:50;;;;;;;3.13;2.70;;;;;;;16.42;43.89;96006.16;4957056;29;20582;-85
2021/05/31 08:17:16;;;;;;;3.35;3.03;;;;;;;16.50;44.62;96015.56;4957974;29;20796;-85
2021/05/31 08:19:42;;;;;;;4.10;3.80;;;;;;;16.41;44.89;96017.56;4958846;29;20205;-86
2021/05/31 08:22:08;;;;;;;3.40;3.10;;;;;;;16.45;44.19;96012.75;4957969;29;20608;-87
2021/05/31 08:24:35;;;;;;;3.75;3.45;;;;;;;16.62;44.26;96011.34;4959479;29;20323;-86
2021/05/31 08:27:02;;;;;;;4.32;3.92;;;;;;;16.77;43.83;96005.91;4957942;29;20243;-87
2021/05/31 08:29:28;;;;;;;3.70;3.40;;;;;;;16.89;42.71;96010.31;4958036;29;20227;-86
2021/05/31 08:31:56;;;;;;;3.40;3.15;;;;;;;17.07;42.62;96006.22;4957989;29;20201;-86
2021/05/31 08:34:23;;;;;;;3.40;3.10;;;;;;;17.00;42.66;96013.25;4959549;29;20235;-85
2021/05/31 08:36:49;;;;;;;3.38;3.08;;;;;;;17.11;43.59;96010.81;4959278;28;20224;-88
2021/05/31 08:39:15;;;;;;;3.65;3.35;;;;;;;17.11;42.59;96004.81;4960035;28;20276;-87
2021/05/31 08:41:41;;;;;;;5.13;3.40;;;;;;;17.26;42.76;96006.16;4959841;28;20268;-87
2021/05/31 08:44:07;;;;;;;4.10;3.70;;;;;;;17.36;43.98;96005.69;4960339;28;20225;-89
2021/05/31 08:46:35;;;;;;;4.22;3.17;;;;;;;17.60;43.19;96004.97;4958430;28;20201;-85
2021/05/31 08:49:04;;;;;;;4.50;2.92;;;;;;;17.89;43.34;96006.22;4960444;28;20223;-86
2021/05/31 08:51:32;;;;;;;5.65;3.53;;;;;;;17.82;41.17;96012.47;4959551;28;20227;-87
2021/05/31 08:53:58;;;;;;;3.60;3.10;;;;;;;17.88;41.58;96003.81;4961008;28;20231;-86
2021/05/31 08:56:27;;;;;;;4.35;3.42;;;;;;;17.90;41.48;96005.19;4960423;28;20236;-85
2021/05/31 08:58:55;;;;;;;3.88;3.38;;;;;;;18.03;41.94;96003.50;4959526;28;20201;-87
2021/05/31 09:01:24;;;;;;;4.50;3.92;;;;;;;18.19;41.76;96002.97;4957211;28;20666;-87
2021/05/31 09:03:50;;;;;;;3.70;3.40;;;;;;;18.51;42.70;96003.66;4960153;29;20750;-86
2021/05/31 09:06:20;;;;;;;7.57;3.83;;;;;;;18.70;42.02;96004.50;4958967;29;20213;-87
2021/05/31 09:08:53;;;;;;;4.50;4.10;;;;;;;18.61;41.40;96004.00;4957531;29;20221;-88
2021/05/31 09:11:23;;;;;;;4.18;3.78;;;;;;;18.63;41.35;96010.63;4958130;29;20205;-87
2021/05/31 09:13:49;;;;;;;4.85;3.25;;;;;;;18.84;41.12;96006.78;4959325;29;20618;-85
2021/05/31 09:16:18;;;;;;;4.32;3.67;;;;;;;18.63;41.42;95999.38;4960779;29;20283;-86
2021/05/31 09:18:48;;;;;;;4.28;3.85;;;;;;;18.81;41.53;96004.59;4960852;29;20415;-86
2021/05/31 09:21:22;;;;;;;3.83;3.45;;;;;;;19.03;40.29;95997.13;4960111;29;20267;-86
2021/05/31 09:23:53;;;;;;;3.63;3.33;;;;;;;18.84;38.93;95998.16;4960634;29;21546;-85
2021/05/31 09:26:26;;;;;;;4.22;3.50;;;;;;;19.03;38.56;96004.97;4960261;29;20233;-84
2021/05/31 09:28:57;;;;;;;5.30;3.63;;;;;;;19.01;38.42;96004.38;4958110;29;20257;-86
2021/05/31 09:31:26;;;;;;;4.32;3.60;;;;;;;18.88;39.37;96001.91;4959597;29;20212;-86
2021/05/31 09:34:00;;;;;;;3.42;3.03;;;;;;;19.01;40.30;95996.56;4957841;29;20236;-86
2021/05/31 09:36:28;;;;;;;3.20;3.00;;;;;;;19.11;40.07;95996.03;4957965;28;20232;-84
2021/05/31 09:38:55;;;;;;;3.42;3.13;;;;;;;19.15;39.32;95992.75;4960872;28;20690;-87
2021/05/31 09:41:23;;;;;;;3.70;3.40;;;;;;;19.17;38.06;96003.78;4958854;29;20232;-86
2021/05/31 09:43:55;;;;;;;3.67;3.38;;;;;;;19.40;38.76;96005.72;4958240;28;20259;-87
2021/05/31 09:46:21;;;;;;;3.67;3.38;;;;;;;19.47;38.15;95995.94;4960073;28;20212;-86
2021/05/31 09:48:47;;;;;;;3.67;3.30;;;;;;;19.36;37.45;95999.31;4959395;28;20312;-87
2021/05/31 09:51:14;;;;;;;3.38;2.97;;;;;;;19.29;37.75;95988.16;4959200;29;20228;-85
2021/05/31 09:53:42;;;;;;;3.45;2.85;;;;;;;19.63;38.23;95995.34;4959842;28;20211;-86
2021/05/31 09:56:15;;;;;;;2.92;2.72;;;;;;;19.73;37.46;96001.84;4961235;29;20292;-85
2021/05/31 09:58:55;;;;;;;6.75;3.30;;;;;;;19.85;36.34;96006.09;4959961;28;20232;-85
2021/05/31 10:01:35;;;;;;;3.47;3.17;;;;;;;19.65;37.74;96002.97;4959378;28;20205;-86
2021/05/31 10:04:22;;;;;;;3.28;2.97;;;;;;;19.56;35.75;95997.28;4959962;29;20247;-87
2021/05/31 10:06:51;;;;;;;5.82;2.92;;;;;;;19.51;36.17;95994.53;4961911;28;20716;-87
2021/05/31 10:09:19;;;;;;;4.60;3.30;;;;;;;19.63;36.88;96005.00;4962474;29;20315;-86
2021/05/31 10:11:45;;;;;;;4.25;2.90;;;;;;;19.87;35.98;95998.81;4961808;29;20235;-87
2021/05/31 10:14:15;;;;;;;4.15;3.00;;;;;;;20.09;36.40;95996.47;4961866;29;20267;-84
2021/05/31 10:16:41;;;;;;;3.22;3.03;;;;;;;20.15;35.69;95986.94;4942324;29;20248;-86
2021/05/31 10:19:07;;;;;;;2.53;2.30;;;;;;;20.20;34.33;95980.00;4955872;28;20296;-86
2021/05/31 10:21:34;;;;;;;2.75;2.45;;;;;;;20.45;34.09;95982.41;4961234;28;20208;-83
2021/05/31 10:24:00;;;;;;;4.93;2.42;;;;;;;20.60;35.14;95977.50;4956130;28;20259;-85
2021/05/31 10:26:32;;;;;;;3.47;2.72;;;;;;;20.76;34.40;95981.25;4955116;28;20207;-83
2021/05/31 10:28:58;;;;;;;3.53;2.83;;;;;;;20.65;35.55;95977.63;4954384;29;20256;-83
2021/05/31 10:31:25;;;;;;;2.70;2.50;;;;;;;20.72;35.69;95977.50;4954671;29;20205;-83
2021/05/31 10:33:58;;;;;;;3.17;2.97;;;;;;;20.71;36.19;95970.69;4953854;28;20233;-84
2021/05/31 10:36:24;;;;;;;3.20;2.90;;;;;;;20.76;35.66;95973.41;4954312;29;20201;-83
2021/05/31 10:38:51;;;;;;;4.15;2.83;;;;;;;20.82;33.54;95982.94;4954246;29;20753;-83
2021/05/31 10:41:19;;;;;;;2.95;2.63;;;;;;;20.78;34.14;95981.84;4954118;29;20672;-84
2021/05/31 10:43:49;;;;;;;6.13;2.50;;;;;;;20.65;32.28;95977.63;4954328;29;20228;-84
2021/05/31 10:46:19;;;;;;;4.43;2.45;;;;;;;20.84;33.61;95977.47;4954961;29;20209;-83
2021/05/31 10:48:46;;;;;;;2.50;2.30;;;;;;;21.00;34.23;95977.53;4954476;29;20288;-83
2021/05/31 10:51:15;;;;;;;2.42;2.20;;;;;;;20.75;31.52;95984.09;4954961;29;20216;-83
2021/05/31 10:53:41;;;;;;;2.47;2.28;;;;;;;20.82;32.61;95980.31;4953861;29;20196;-84
2021/05/31 10:56:09;;;;;;;2.35;2.15;;;;;;;20.88;32.52;95978.59;4954610;29;20216;-83
2021/05/31 10:58:39;;;;;;;2.42;2.20;;;;;;;20.82;31.58;95976.91;4956637;29;20201;-85
2021/05/31 11:01:08;;;;;;;2.83;2.30;;;;;;;20.88;32.52;95976.78;4960777;29;20212;-86
2021/05/31 11:03:44;;;;;;;2.20;2.10;;;;;;;21.10;32.34;95976.97;4959684;29;20212;-85
2021/05/31 11:06:14;;;;;;;3.00;2.20;;;;;;;21.28;31.35;95979.44;4960034;29;20611;-86
2021/05/31 11:08:49;;;;;;;2.53;2.28;;;;;;;21.36;30.78;95978.25;4960518;29;20224;-85
2021/05/31 11:11:24;;;;;;;2.10;2.00;;;;;;;21.39;32.92;95977.78;4960639;29;20192;-84
2021/05/31 11:13:52;;;;;;;2.65;2.45;;;;;;;21.51;31.76;95981.16;4959618;29;20208;-86
2021/05/31 11:16:21;;;;;;;3.35;2.28;;;;;;;21.34;30.73;95985.56;4959392;29;20197;-84
2021/05/31 11:18:47;;;;;;;2.95;2.60;;;;;;;21.40;30.62;95979.38;4962036;28;20213;-85
2021/05/31 11:21:25;;;;;;;3.30;2.60;;;;;;;21.26;30.52;95970.22;4961792;29;20208;-87
2021/05/31 11:23:59;;;;;;;2.78;2.58;;;;;;;21.16;32.19;95965.56;4963165;29;20236;-87
2021/05/31 11:26:31;;;;;;;2.90;2.70;;;;;;;20.73;30.13;95967.84;4962374;29;20244;-87
2021/05/31 11:28:57;;;;;;;2.70;2.50;;;;;;;20.61;31.28;95966.00;4961846;29;20220;-84
2021/05/31 11:31:26;;;;;;;3.10;2.80;;;;;;;20.35;31.99;95961.25;4961665;29;20228;-86
2021/05/31 11:33:54;;;;;;;2.88;2.38;;;;;;;20.22;31.48;95966.69;4962224;29;20264;-84
2021/05/31 11:36:31;;;;;;;2.38;2.28;;;;;;;20.44;32.45;95961.72;4963791;28;20220;-85
2021/05/31 11:38:58;;;;;;;2.75;2.33;;;;;;;20.76;31.94;95962.94;4962987;29;20201;-86
2021/05/31 11:41:40;;;;;;;2.70;2.22;;;;;;;20.69;31.23;95962.25;4962054;29;20201;-86
2021/05/31 11:44:08;;;;;;;2.33;1.98;;;;;;;20.82;29.97;95961.19;4962786;29;20912;-86
2021/05/31 11:46:48;;;;;;;2.40;2.20;;;;;;;20.91;30.18;95963.25;4961665;29;20772;-86